Roy, Montana
Current Conditions -  °F | °C
As of 6:31 AM on Sunday 23 Nov 2014 (Local Time) from KLWT Reporting Station
Light Snow Light Snow  
Wind Chill: 22°   Ceiling: 1400
Heat Index: 30°   Visibility: 5mi
Dew Point: 24°   Wind: 9mph
Humidity: 79%   Direction: 270°W
Pressure: 29.83"   Gusts: NA
Location:  47.33°N, 108.96°W
Report Text: KLWT 231331Z AUTO 27008KT 5SM -SN BKN014 BKN021 OVC027 M01/M04 A2983 RMK AO2 SNB04 P0000 T10111044
Loading
Personal Weather Stations






























Interactive Weather Map New forecast layout! Learn more

10-Day Weather Forecast

Advertisements
Track Severe Weather on mobile